createdAt,value
2022-12-18T00:00:02.905Z,26.69
2022-12-18T00:02:48.011Z,25.89
2022-12-18T00:05:33.276Z,26.46
2022-12-18T00:08:18.118Z,25.64
2022-12-18T00:11:03.054Z,25.68
2022-12-18T00:13:52.039Z,24.97
2022-12-18T00:16:36.915Z,25.66
2022-12-18T00:19:21.849Z,25.40
2022-12-18T00:22:06.715Z,25.65
2022-12-18T00:24:51.590Z,26.02
2022-12-18T00:27:36.369Z,25.45
2022-12-18T00:30:21.232Z,25.64
2022-12-18T00:33:06.123Z,24.43
2022-12-18T00:35:50.971Z,24.75
2022-12-18T00:38:35.881Z,24.57
2022-12-18T00:41:20.683Z,25.40
2022-12-18T00:44:05.598Z,24.52
2022-12-18T00:46:50.512Z,24.03
2022-12-18T00:49:35.513Z,24.78
2022-12-18T00:52:20.293Z,25.96
2022-12-18T00:55:06.553Z,25.84
2022-12-18T00:57:51.710Z,25.62
2022-12-18T01:00:36.646Z,25.38
2022-12-18T01:03:21.472Z,25.97
2022-12-18T01:06:06.320Z,26.25
2022-12-18T01:08:51.469Z,27.26
2022-12-18T01:11:36.222Z,27.21
2022-12-18T01:14:21.228Z,27.48
2022-12-18T01:17:06.140Z,26.97
2022-12-18T01:19:51.201Z,27.05
2022-12-18T01:22:36.033Z,27.10
2022-12-18T01:25:20.853Z,26.83
2022-12-18T01:28:05.923Z,27.31
2022-12-18T01:30:50.709Z,27.47
2022-12-18T01:33:35.714Z,26.59
2022-12-18T01:36:20.965Z,27.32
2022-12-18T01:39:06.017Z,27.38
2022-12-18T01:41:50.877Z,27.68
2022-12-18T01:44:35.801Z,27.49
2022-12-18T01:47:20.840Z,28.55
2022-12-18T01:50:05.755Z,28.44
2022-12-18T01:52:50.595Z,28.75
2022-12-18T01:55:35.583Z,28.08
2022-12-18T01:58:20.414Z,29.03
2022-12-18T02:01:05.474Z,28.52
2022-12-18T02:03:50.302Z,27.84
2022-12-18T02:06:35.079Z,27.86
2022-12-18T02:09:19.876Z,27.43
2022-12-18T02:12:04.760Z,28.51
2022-12-18T02:14:49.665Z,29.07
2022-12-18T02:17:34.526Z,28.02
2022-12-18T02:20:19.521Z,27.99
2022-12-18T02:23:04.450Z,27.88
2022-12-18T02:25:49.265Z,28.35
2022-12-18T02:28:34.108Z,28.78
2022-12-18T02:31:19.040Z,27.28
2022-12-18T02:34:03.955Z,28.58
2022-12-18T02:36:49.037Z,27.90
2022-12-18T02:39:33.881Z,27.98
2022-12-18T02:42:18.991Z,28.58
2022-12-18T02:45:03.974Z,27.90
2022-12-18T02:47:48.861Z,27.76
2022-12-18T02:50:33.797Z,27.65
2022-12-18T02:53:18.760Z,28.34
2022-12-18T02:56:03.533Z,28.33
2022-12-18T02:58:48.537Z,27.63
2022-12-18T03:01:33.727Z,27.24
2022-12-18T03:04:19.005Z,28.13
2022-12-18T03:07:03.997Z,28.13
2022-12-18T03:09:48.889Z,28.23
2022-12-18T03:12:33.882Z,27.92
2022-12-18T03:15:18.789Z,27.22
2022-12-18T03:18:03.681Z,27.54
2022-12-18T03:20:48.605Z,26.99
2022-12-18T03:23:33.530Z,28.02
2022-12-18T03:26:18.584Z,27.41
2022-12-18T03:29:03.426Z,27.82
2022-12-18T03:31:48.460Z,27.93
2022-12-18T03:34:33.305Z,27.29
2022-12-18T03:37:18.406Z,27.86
2022-12-18T03:40:03.295Z,27.81
2022-12-18T03:42:48.338Z,28.54
2022-12-18T03:45:33.239Z,28.38
2022-12-18T03:48:18.190Z,27.79
2022-12-18T03:51:03.180Z,28.65
2022-12-18T03:53:48.100Z,27.80
2022-12-18T03:56:33.012Z,27.96
2022-12-18T03:59:17.962Z,28.10
2022-12-18T04:02:02.895Z,27.49
2022-12-18T04:04:47.949Z,27.05
2022-12-18T04:07:32.956Z,27.81
2022-12-18T04:10:18.001Z,28.30
2022-12-18T04:13:02.919Z,28.17
2022-12-18T04:15:47.916Z,27.36
2022-12-18T04:18:32.798Z,27.60
2022-12-18T04:21:17.802Z,27.69
2022-12-18T04:24:02.579Z,27.99
2022-12-18T04:26:47.576Z,28.09
2022-12-18T04:29:32.262Z,28.04
2022-12-18T04:32:17.253Z,28.37
2022-12-18T04:35:02.067Z,27.93
2022-12-18T04:37:47.024Z,27.14
2022-12-18T04:40:31.911Z,26.96
2022-12-18T04:43:16.880Z,27.24
2022-12-18T04:46:01.816Z,28.17
2022-12-18T04:48:46.554Z,27.73
2022-12-18T04:51:31.491Z,26.90
2022-12-18T04:54:16.376Z,27.46
2022-12-18T04:57:01.269Z,27.28
2022-12-18T04:59:46.203Z,28.27
2022-12-18T05:02:31.162Z,28.33
2022-12-18T05:05:16.523Z,28.34
2022-12-18T05:08:01.342Z,28.37
2022-12-18T05:10:46.895Z,27.31
2022-12-18T05:13:31.777Z,27.93
2022-12-18T05:16:16.845Z,28.80
2022-12-18T05:19:01.627Z,28.86
2022-12-18T05:21:46.665Z,29.14
2022-12-18T05:24:31.608Z,28.56
2022-12-18T05:27:16.609Z,27.70
2022-12-18T05:30:01.462Z,27.61
2022-12-18T05:32:46.367Z,27.67
2022-12-18T05:35:31.334Z,28.17
2022-12-18T05:38:16.251Z,28.62
2022-12-18T05:41:01.134Z,28.25
2022-12-18T05:43:45.981Z,29.14
2022-12-18T05:46:30.991Z,28.24
2022-12-18T05:49:15.949Z,29.44
2022-12-18T05:52:00.701Z,28.80
2022-12-18T05:54:45.670Z,29.47
2022-12-18T05:57:30.677Z,28.86
2022-12-18T06:00:15.644Z,28.53
2022-12-18T06:03:00.570Z,28.60
2022-12-18T06:05:45.489Z,28.95
2022-12-18T06:08:31.504Z,28.56
2022-12-18T06:11:16.481Z,28.29
2022-12-18T06:14:01.373Z,29.28
2022-12-18T06:16:46.260Z,29.74
2022-12-18T06:19:31.310Z,29.23
2022-12-18T06:22:16.261Z,29.37
2022-12-18T06:25:01.318Z,29.63
2022-12-18T06:27:46.788Z,28.30
2022-12-18T06:30:31.618Z,29.01
2022-12-18T06:33:16.711Z,28.80
2022-12-18T06:36:01.544Z,27.90
2022-12-18T06:38:47.063Z,28.11
2022-12-18T06:41:32.007Z,27.08
2022-12-18T06:44:16.968Z,26.52
2022-12-18T06:47:01.648Z,25.32
2022-12-18T06:49:46.511Z,26.06
2022-12-18T06:52:31.483Z,25.57
2022-12-18T06:55:16.393Z,27.23
2022-12-18T06:58:01.263Z,26.83
2022-12-18T07:00:46.178Z,26.67
2022-12-18T07:03:31.128Z,26.16
2022-12-18T07:06:15.868Z,25.51
2022-12-18T07:09:00.729Z,25.69
2022-12-18T07:11:45.537Z,24.83
2022-12-18T07:14:30.492Z,24.27
2022-12-18T07:17:15.371Z,23.69
2022-12-18T07:20:00.303Z,22.06
2022-12-18T07:22:45.334Z,22.15
2022-12-18T07:25:30.261Z,22.79
2022-12-18T07:28:17.557Z,23.09
2022-12-18T07:31:02.468Z,23.44
2022-12-18T07:33:47.405Z,22.19
2022-12-18T07:36:32.249Z,22.51
2022-12-18T07:39:17.057Z,21.55
2022-12-18T07:42:01.977Z,21.84
2022-12-18T07:44:46.885Z,21.04
2022-12-18T07:47:31.889Z,21.70
2022-12-18T07:50:16.635Z,22.81
2022-12-18T07:53:01.596Z,23.33
2022-12-18T07:56:25.000Z,23.21
2022-12-18T07:58:51.403Z,22.18
2022-12-18T08:01:36.528Z,22.74
2022-12-18T08:04:21.744Z,22.32
2022-12-18T08:07:06.605Z,22.47
2022-12-18T08:09:51.476Z,22.03
2022-12-18T08:12:36.403Z,22.58
2022-12-18T08:15:21.271Z,22.54
2022-12-18T08:18:10.122Z,21.07
2022-12-18T08:20:57.525Z,21.53
2022-12-18T08:23:43.502Z,21.45
2022-12-18T08:26:28.979Z,21.63
2022-12-18T08:29:17.319Z,21.45
2022-12-18T08:32:06.450Z,22.14
2022-12-18T08:34:51.352Z,22.21
2022-12-18T08:37:36.188Z,21.51
2022-12-18T08:40:21.106Z,23.12
2022-12-18T08:43:05.970Z,24.21
2022-12-18T08:45:51.064Z,24.48
2022-12-18T08:48:35.875Z,24.56
2022-12-18T08:51:20.792Z,24.33
2022-12-18T08:54:06.483Z,23.35
2022-12-18T08:56:51.499Z,24.46
2022-12-18T08:59:36.363Z,23.60
2022-12-18T09:02:21.396Z,22.61
2022-12-18T09:05:06.680Z,21.20
2022-12-18T09:07:51.529Z,21.84
2022-12-18T09:10:41.695Z,21.38
2022-12-18T09:13:27.953Z,21.85
2022-12-18T09:16:12.797Z,21.38
2022-12-18T09:18:57.714Z,20.39
2022-12-18T09:21:47.771Z,20.39
2022-12-18T09:24:33.541Z,20.81
2022-12-18T09:27:18.324Z,22.88
2022-12-18T09:30:03.632Z,22.61
2022-12-18T09:32:48.476Z,23.33
2022-12-18T09:35:33.466Z,21.60
2022-12-18T09:38:18.828Z,21.77
2022-12-18T09:41:03.973Z,22.43
2022-12-18T09:43:48.881Z,21.98
2022-12-18T09:46:33.778Z,23.09
2022-12-18T09:49:18.679Z,22.70
2022-12-18T09:52:04.115Z,22.39
2022-12-18T09:54:49.144Z,22.06
2022-12-18T09:57:33.984Z,23.07
2022-12-18T10:00:18.895Z,23.35
2022-12-18T10:03:04.048Z,20.84
2022-12-18T10:05:49.285Z,21.83
2022-12-18T10:08:34.143Z,21.15
2022-12-18T10:11:19.096Z,21.40
2022-12-18T10:14:04.070Z,21.76
2022-12-18T10:16:48.938Z,22.58
2022-12-18T10:19:34.025Z,22.63
2022-12-18T10:22:19.075Z,22.21
2022-12-18T10:25:04.333Z,21.99
2022-12-18T10:27:49.184Z,22.02
2022-12-18T10:30:34.100Z,22.01
2022-12-18T10:33:18.958Z,22.23
2022-12-18T10:36:03.893Z,22.21
2022-12-18T10:38:48.839Z,22.26
2022-12-18T10:41:33.728Z,22.22
2022-12-18T10:44:18.601Z,23.13
2022-12-18T10:47:06.183Z,22.39
2022-12-18T10:49:53.902Z,22.80
2022-12-18T10:52:45.058Z,24.55
2022-12-18T10:55:32.969Z,24.04
2022-12-18T10:58:22.183Z,24.43
2022-12-18T11:01:10.316Z,23.96
2022-12-18T11:04:00.313Z,24.00
2022-12-18T11:06:47.242Z,24.36
2022-12-18T11:09:32.139Z,25.25
2022-12-18T11:12:17.148Z,25.34
2022-12-18T11:15:02.105Z,24.04
2022-12-18T11:17:46.943Z,23.37
2022-12-18T11:20:31.884Z,23.80
2022-12-18T11:23:16.751Z,23.76
2022-12-18T11:26:01.706Z,23.83
2022-12-18T11:28:46.681Z,22.70
2022-12-18T11:31:32.092Z,22.93
2022-12-18T11:34:32.448Z,22.67
2022-12-18T11:37:17.711Z,22.43
2022-12-18T11:40:02.697Z,22.14
2022-12-18T11:42:47.510Z,22.80
2022-12-18T11:45:32.465Z,23.76
2022-12-18T11:48:17.429Z,23.10
2022-12-18T11:51:02.425Z,22.47
2022-12-18T11:53:47.276Z,21.91
2022-12-18T11:56:32.143Z,22.64
2022-12-18T11:59:17.115Z,22.33
2022-12-18T12:02:02.053Z,22.68
2022-12-18T12:04:48.460Z,22.61
2022-12-18T12:07:33.370Z,22.37
2022-12-18T12:10:18.307Z,22.99
2022-12-18T12:13:03.138Z,22.19
2022-12-18T12:15:48.101Z,22.34
2022-12-18T12:18:32.889Z,22.12
2022-12-18T12:21:17.741Z,22.62
2022-12-18T12:24:02.860Z,21.71
2022-12-18T12:26:47.704Z,21.53
2022-12-18T12:29:32.529Z,21.42
2022-12-18T12:32:17.334Z,20.95
2022-12-18T12:35:07.770Z,20.81
2022-12-18T12:37:54.451Z,21.20
2022-12-18T12:41:02.394Z,21.28
2022-12-18T12:43:50.675Z,20.89
2022-12-18T12:46:36.168Z,21.13
2022-12-18T12:49:21.671Z,21.04
2022-12-18T12:52:08.147Z,20.63
2022-12-18T12:54:52.934Z,21.21
2022-12-18T12:57:38.373Z,21.77
2022-12-18T13:00:23.295Z,21.30
2022-12-18T13:03:08.167Z,21.19
2022-12-18T13:05:53.591Z,21.26
2022-12-18T13:08:39.111Z,21.25
2022-12-18T13:11:23.941Z,20.92
2022-12-18T13:14:09.821Z,21.45
2022-12-18T13:16:56.270Z,22.28
2022-12-18T13:19:41.724Z,21.90
2022-12-18T13:22:26.712Z,21.02
2022-12-18T13:25:11.737Z,21.48
2022-12-18T13:27:56.715Z,21.76
2022-12-18T13:30:41.675Z,21.93
2022-12-18T13:33:26.453Z,22.68
2022-12-18T13:36:11.899Z,22.82
2022-12-18T13:38:56.750Z,22.12
2022-12-18T13:41:42.146Z,22.07
2022-12-18T13:44:27.058Z,21.72
2022-12-18T13:47:12.005Z,21.45
2022-12-18T13:49:58.639Z,21.43
2022-12-18T13:52:43.526Z,20.87
2022-12-18T13:55:28.466Z,21.47
2022-12-18T13:58:13.297Z,21.80
2022-12-18T14:00:58.311Z,21.26
2022-12-18T14:03:43.665Z,21.10
2022-12-18T14:06:29.573Z,21.90
2022-12-18T14:09:20.339Z,21.48
2022-12-18T14:12:06.550Z,21.15
2022-12-18T14:14:52.536Z,21.49
2022-12-18T14:17:40.243Z,22.02
2022-12-18T14:20:25.088Z,22.62
2022-12-18T14:23:09.888Z,22.18
2022-12-18T14:25:54.940Z,21.99
2022-12-18T14:28:39.676Z,22.66
2022-12-18T14:31:24.711Z,22.43
2022-12-18T14:34:09.525Z,22.17
2022-12-18T14:36:54.522Z,21.76
2022-12-18T14:39:39.382Z,21.90
2022-12-18T14:42:24.281Z,22.68
2022-12-18T14:45:16.180Z,22.20
2022-12-18T14:48:01.137Z,23.05
2022-12-18T14:50:46.030Z,23.58
2022-12-18T14:53:30.884Z,23.19
2022-12-18T14:56:15.687Z,23.64
2022-12-18T14:59:00.526Z,23.11
2022-12-18T15:01:45.566Z,23.03
2022-12-18T15:04:30.929Z,22.79
2022-12-18T15:07:15.860Z,23.02
2022-12-18T15:10:02.212Z,23.28
2022-12-18T15:12:47.347Z,23.76
2022-12-18T15:15:32.341Z,23.67
2022-12-18T15:18:17.351Z,24.19
2022-12-18T15:21:02.349Z,23.22
2022-12-18T15:23:47.289Z,23.95
2022-12-18T15:26:32.387Z,23.17
2022-12-18T15:29:17.455Z,23.21
2022-12-18T15:32:02.746Z,23.61
2022-12-18T15:34:47.668Z,24.07
2022-12-18T15:37:32.734Z,23.64
2022-12-18T15:40:18.023Z,23.73
2022-12-18T15:43:03.055Z,24.65
2022-12-18T15:45:48.072Z,24.85
2022-12-18T15:48:33.484Z,25.13
2022-12-18T15:51:18.475Z,25.33
2022-12-18T15:54:03.386Z,27.27
2022-12-18T15:56:48.357Z,27.23
2022-12-18T15:59:33.240Z,28.10
2022-12-18T16:02:18.397Z,27.59
2022-12-18T16:05:03.564Z,27.82
2022-12-18T16:07:48.836Z,27.97
2022-12-18T16:10:33.999Z,27.83
2022-12-18T16:13:18.926Z,27.68
2022-12-18T16:16:03.920Z,28.49
2022-12-18T16:18:48.682Z,29.49
2022-12-18T16:21:34.236Z,26.45
2022-12-18T16:24:19.576Z,27.47
2022-12-18T16:27:04.591Z,27.41
2022-12-18T16:29:49.552Z,27.75
2022-12-18T16:32:34.513Z,26.92
2022-12-18T16:35:19.576Z,27.58
2022-12-18T16:38:04.335Z,28.21
2022-12-18T16:40:49.296Z,29.09
2022-12-18T16:43:34.224Z,27.71
2022-12-18T16:46:19.231Z,26.36
2022-12-18T16:49:04.189Z,26.83
2022-12-18T16:51:49.315Z,27.60
2022-12-18T16:54:34.521Z,27.72
2022-12-18T16:57:19.772Z,27.88
2022-12-18T17:00:06.333Z,28.23
2022-12-18T17:02:51.765Z,26.42
2022-12-18T17:05:37.024Z,26.97
2022-12-18T17:08:21.952Z,26.04
2022-12-18T17:11:07.022Z,24.93
2022-12-18T17:13:52.032Z,24.84
2022-12-18T17:16:36.878Z,26.33
2022-12-18T17:19:22.845Z,26.33
2022-12-18T17:22:07.697Z,25.93
2022-12-18T17:24:52.614Z,26.83
2022-12-18T17:27:37.559Z,27.13
2022-12-18T17:30:22.454Z,29.50
2022-12-18T17:33:07.514Z,28.31
2022-12-18T17:35:52.463Z,30.40
2022-12-18T17:38:37.457Z,29.33
2022-12-18T17:41:22.292Z,29.81
2022-12-18T17:44:07.143Z,28.88
2022-12-18T17:46:52.269Z,29.91
2022-12-18T17:49:37.535Z,30.50
2022-12-18T17:52:22.584Z,29.44
2022-12-18T17:55:07.541Z,29.68
2022-12-18T17:57:52.419Z,28.99
2022-12-18T18:00:37.183Z,31.12
2022-12-18T18:03:22.439Z,29.48
2022-12-18T18:06:07.595Z,28.51
2022-12-18T18:08:52.563Z,28.46
2022-12-18T18:11:37.569Z,28.91
2022-12-18T18:14:22.456Z,30.17
2022-12-18T18:17:07.931Z,31.40
2022-12-18T18:19:52.962Z,31.98
2022-12-18T18:22:38.502Z,32.11
2022-12-18T18:25:23.248Z,32.31
2022-12-18T18:28:08.674Z,34.43
2022-12-18T18:30:53.590Z,32.27
2022-12-18T18:33:38.899Z,31.44
2022-12-18T18:36:24.178Z,28.22
2022-12-18T18:39:09.091Z,28.05
2022-12-18T18:41:55.721Z,27.77
2022-12-18T18:44:44.433Z,29.19
2022-12-18T18:47:32.236Z,28.61
2022-12-18T18:50:17.281Z,28.42
2022-12-18T18:53:02.315Z,29.28
2022-12-18T18:55:59.083Z,28.87
2022-12-18T18:58:52.565Z,28.97
2022-12-18T19:01:37.591Z,29.35
2022-12-18T19:04:23.041Z,30.14
2022-12-18T19:07:08.153Z,31.42
2022-12-18T19:09:53.032Z,30.50
2022-12-18T19:12:39.547Z,28.61
2022-12-18T19:15:25.490Z,28.36
2022-12-18T19:18:10.424Z,29.54
2022-12-18T19:20:55.533Z,29.74
2022-12-18T19:23:40.819Z,28.49
2022-12-18T19:26:28.061Z,28.36
2022-12-18T19:29:13.189Z,28.18
2022-12-18T19:31:58.279Z,28.48
2022-12-18T19:34:43.376Z,28.91
2022-12-18T19:37:30.718Z,28.89
2022-12-18T19:40:15.873Z,30.21
2022-12-18T19:43:01.290Z,28.51
2022-12-18T19:45:46.351Z,29.89
2022-12-18T19:48:31.234Z,29.36
2022-12-18T19:51:16.225Z,30.11
2022-12-18T19:54:01.684Z,28.95
2022-12-18T19:56:47.782Z,28.02
2022-12-18T19:59:32.782Z,28.93
2022-12-18T20:02:18.511Z,28.63
2022-12-18T20:05:03.934Z,27.84
2022-12-18T20:07:49.050Z,27.52
2022-12-18T20:10:33.906Z,28.23
2022-12-18T20:13:18.900Z,28.97
2022-12-18T20:16:03.768Z,27.64
2022-12-18T20:18:48.870Z,30.02
2022-12-18T20:21:34.274Z,28.45
2022-12-18T20:24:19.414Z,28.08
2022-12-18T20:27:04.534Z,27.33
2022-12-18T20:29:49.586Z,27.72
2022-12-18T20:32:37.242Z,27.80
2022-12-18T20:35:22.485Z,28.11
2022-12-18T20:38:08.327Z,27.19
2022-12-18T20:40:54.507Z,30.24
2022-12-18T20:43:39.754Z,32.52
2022-12-18T20:46:24.942Z,32.54
2022-12-18T20:49:09.773Z,31.55
2022-12-18T20:51:54.508Z,31.16
2022-12-18T20:54:39.382Z,30.66
2022-12-18T20:57:24.224Z,30.50
2022-12-18T21:00:09.219Z,30.22
2022-12-18T21:02:56.237Z,31.28
2022-12-18T21:05:41.593Z,30.25
2022-12-18T21:08:26.440Z,29.56
2022-12-18T21:11:11.440Z,29.24
2022-12-18T21:13:56.417Z,29.68
2022-12-18T21:16:41.278Z,29.79
2022-12-18T21:19:26.209Z,28.76
2022-12-18T21:22:10.957Z,29.12
2022-12-18T21:24:56.416Z,28.79
2022-12-18T21:27:41.316Z,29.14
2022-12-18T21:30:26.277Z,28.34
2022-12-18T21:33:11.189Z,28.67
2022-12-18T21:35:56.134Z,28.71
2022-12-18T21:38:41.273Z,30.28
2022-12-18T21:41:26.717Z,29.80
2022-12-18T21:44:11.640Z,29.01
2022-12-18T21:47:02.445Z,29.19
2022-12-18T21:49:54.644Z,28.92
2022-12-18T21:52:39.503Z,29.22
2022-12-18T21:55:24.527Z,28.67
2022-12-18T21:58:09.441Z,29.74
2022-12-18T22:00:54.318Z,29.03
2022-12-18T22:03:39.360Z,29.56
2022-12-18T22:06:24.066Z,29.45
2022-12-18T22:09:09.296Z,30.13
2022-12-18T22:11:54.083Z,29.31
2022-12-18T22:14:38.957Z,29.17
2022-12-18T22:17:23.769Z,29.22
2022-12-18T22:20:09.160Z,30.23
2022-12-18T22:22:54.181Z,29.00
2022-12-18T22:25:39.902Z,28.36
2022-12-18T22:28:25.189Z,28.58
2022-12-18T22:31:10.061Z,28.92
2022-12-18T22:33:54.965Z,29.04
2022-12-18T22:36:40.048Z,29.11
2022-12-18T22:39:25.063Z,28.09
2022-12-18T22:42:10.603Z,28.36
2022-12-18T22:44:55.416Z,28.30
2022-12-18T22:47:40.469Z,29.34
2022-12-18T22:50:25.454Z,29.22
2022-12-18T22:53:10.482Z,29.03
2022-12-18T22:55:55.452Z,29.85
2022-12-18T22:58:40.376Z,30.42
2022-12-18T23:01:25.278Z,29.63
2022-12-18T23:04:10.504Z,29.84
2022-12-18T23:06:55.580Z,30.02
2022-12-18T23:09:40.505Z,29.23
2022-12-18T23:12:25.362Z,30.56
2022-12-18T23:15:10.326Z,30.61
2022-12-18T23:17:55.343Z,30.02
2022-12-18T23:20:40.264Z,30.29
2022-12-18T23:23:26.704Z,29.65
2022-12-18T23:26:11.726Z,29.17
2022-12-18T23:28:56.639Z,29.47
2022-12-18T23:31:41.707Z,29.20
2022-12-18T23:34:27.229Z,30.20
2022-12-18T23:37:12.232Z,29.09
2022-12-18T23:39:57.198Z,28.29
2022-12-18T23:42:42.206Z,30.00
2022-12-18T23:45:27.173Z,30.03
2022-12-18T23:48:12.032Z,28.81
2022-12-18T23:50:56.925Z,30.11
2022-12-18T23:53:41.869Z,29.87
2022-12-18T23:56:26.936Z,29.38
2022-12-18T23:59:11.870Z,29.59
